KBKT/BKT METAR and TAF weather

Enter ICAO airport designator
Station Type Date Time Source
KBKT METAR 2018/07/17 00:15 UTC NOAA

KBKT 170015Z AUTO 17004KT 10SM CLR 26/21 A2997 RMK AO1 T02620205


Station Type Date Time Source
KBKT Decoded METAR 2018/07/17 00:15 UTC NOAA

Ft. Pickett / Blackstone, VA, United States (KBKT) 37-05N 077-57W
Jul 16, 2018 - 08:15 PM EDT / 2018.07.17 0015 UTC
Wind: from the S (170 degrees) at 5 MPH (4 KT):0
Visibility: 10 mile(s):0
Sky conditions: clear
Temperature: 79.2 F (26.2 C)
Dew Point: 68.9 F (20.5 C)
Relative Humidity: 70%
Pressure (altimeter): 29.97 in. Hg (1014 hPa)
ob: KBKT 170015Z AUTO 17004KT 10SM CLR 26/21 A2997 RMK AO1 T02620205
cycle: 0

Station Type Date Time Source
KBKT TAF UTC NOAA

Error!


Example: see airport list